ADDS METAR Data INFO
IDs: Format: Raw Decoded Include TAF

Data at: 0249 UTC 21 Oct 2017

KOLU 210156Z AUTO 17016G20KT 10SM CLR 22/14 A2964 RMK AO2 PK WND 18029/0137 SLP030 T02170139
KOLU 210056Z AUTO 17015G25KT 8SM FEW049 22/14 A2964 RMK AO2 SLP032 T02220144
KOLU 202359Z AUTO 17015G23KT 4SM HZ CLR 23/14 A2963 RMK AO2
KOLU 202356Z AUTO 16018G23KT 1 1/4SM HZ CLR 23/14 A2963 RMK AO2 PK WND 17029/2332 VIS 1/4V5 SLP026 T02280144 10250 20222 56004
KOLU 202347Z AUTO 16018G24KT 1 1/4SM HZ CLR 23/14 A2963 RMK AO2 PK WND 17029/2332 VIS 1/4V5
KOLU 202256Z AUTO 17022G28KT 10SM BKN047 23/15 A2963 RMK AO2 PK WND 18034/2157 SLP027 T02330150
KOLU 202156Z AUTO 16022G30KT 10SM CLR 25/14 A2964 RMK AO2 PK WND 18036/2140 SLP030 T02500144
KOLU 202056Z AUTO 17024G32KT 10SM CLR 25/14 A2966 RMK AO2 PK WND 15034/2037 SLP036 T02500144 56037
KOLU 201956Z AUTO 16022G29KT 10SM CLR 24/14 A2967 RMK AO2 PK WND 17031/1920 SLP040 T02390139
KOLU 201856Z AUTO 16017G29KT 10SM CLR 23/14 A2972 RMK AO2 PK WND 18029/1847 SLP057 T02330139
KOLU 201756Z AUTO 16020G24KT 10SM CLR 23/13 A2977 RMK AO2 PK WND 20027/1737 SLP075 T02330133 10233 20144 58031
KOLU 201656Z AUTO 18011KT 10SM CLR 22/13 A2980 RMK AO2 SLP086 T02170128
KOLU 201556Z AUTO 17014G19KT 10SM CLR 19/12 A2984 RMK AO2 PK WND 19026/1545 SLP101 T01940122
KOLU 201456Z AUTO 17013G19KT 10SM CLR 17/12 A2987 RMK AO2 SLP109 T01670117 56005
KOLU 201356Z AUTO 17012G20KT 10SM CLR 16/11 A2987 RMK AO2 SLP111 T01560111
KOLU 201256Z AUTO 17014G19KT 10SM CLR 15/11 A2987 RMK AO2 SLP112 T01500106
KOLU 201156Z AUTO 17015G22KT 10SM CLR 14/11 A2988 RMK AO2 SLP114 T01440106 10172 20139 58013
KOLU 201056Z AUTO 17014G19KT 10SM CLR 14/10 A2990 RMK AO2 SLP119 T01390100
KOLU 200956Z AUTO 17013G19KT 10SM CLR 14/09 A2990 RMK AO2 SLP120 T01440094
KOLU 200856Z AUTO 18012KT 10SM CLR 15/09 A2992 RMK AO2 SLP125 T01500094 58006
KOLU 200756Z AUTO 18014G18KT 10SM CLR 16/09 A2993 RMK AO2 SLP129 T01560089
KOLU 200656Z AUTO 19011G18KT 10SM CLR 17/08 A2994 RMK AO2 SLP130 T01670083
KOLU 200556Z AUTO 18011KT 10SM CLR 17/08 A2994 RMK AO2 SLP132 T01720083 10211 20172 51001
KOLU 200456Z AUTO 18014G19KT 10SM CLR 18/08 A2994 RMK AO2 SLP132 T01830083 402720017
KOLU 200356Z AUTO 17015G20KT 10SM CLR 19/09 A2994 RMK AO2 SLP134 T01890089
KOLU 200256Z AUTO 17012KT 10SM CLR 19/09 A2993 RMK AO2 SLP136 T01940094 58003
KOLU 200156Z AUTO 17010KT 10SM CLR 20/11 A2994 RMK AO2 SLP140 T02000106
KOLU 200056Z AUTO 16007KT 10SM CLR 20/12 A2994 RMK AO2 SLP143 T02000117
KOLU 192356Z AUTO 15006KT 10SM CLR 21/12 A2994 RMK AO2 SLP142 T02110117 10272 20211 56006
KOLU 192256Z AUTO 15008KT 10SM CLR 25/10 A2994 RMK AO2 SLP140 T02500100
KOLU 192156Z AUTO 17008KT 10SM CLR 27/09 A2995 RMK AO2 SLP141 T02670094
KOLU 192056Z AUTO 15010KT 10SM CLR 27/10 A2996 RMK AO2 SLP144 T02720100 56025
KOLU 191956Z AUTO 15008KT 10SM CLR 26/09 A2997 RMK AO2 SLP150 T02610094
KOLU 191856Z AUTO 18009KT 10SM CLR 26/11 A3000 RMK AO2 SLP160 T02560106
KOLU 191756Z AUTO 17007KT 10SM CLR 24/11 A3003 RMK AO2 SLP170 T02390111 10239 20017 58017
KOLU 191656Z AUTO 15008KT 10SM CLR 22/11 A3006 RMK AO2 SLP177 T02170111
KOLU 191556Z AUTO 16005KT 10SM CLR 16/10 A3007 RMK AO2 SLP185 T01610100
KOLU 191538Z AUTO 16004KT 10SM FEW002 14/09 A3008 RMK AO2
KOLU 191456Z AUTO 00000KT 9SM CLR 12/07 A3009 RMK AO2 SLP192 T01170067 53009